Main page
METAR-TAF:

METAR-TAF

Airports :

Baia Mare, Romania

Baia Mare Airport

latitude: 47-40N, longitude: 023-35E, elevation: 218 m

Current weather observation

The report was made 31 minutes ago, at 08:30 UTC
Wind 5 kt from the West/Southwest, varying between South and West
Temperature 11°C
Humidity 76%
Pressure 1019 hPa
Visibility 10 km or more

METAR: LRBM 300830Z AUTO 24005KT 180V270 9999 FEW020/// SCT027/// BKN190/// 11/07 Q1019

Time: 12:01 (09:01 UTC)

Forecast

The report was made 19 hours and 1 minutes ago, at 14:00 UTC
Forecast valid from 29 at 15 UTC to 29 at 24 UTC
Wind 8 kt from the West/Northwest
Visibility 10 km or more
Scattered clouds at a height of 2000 ft
Broken clouds at a height of 4500 ft
Temporary
from 29 at 15 UTC to 29 at 19 UTC
Visibility: 5000 m
Broken clouds at a height of 1500 ft
Scattered clouds at a height of 3000 ft, Cumulonimbus.
Overcast at a height of 4000 ft
light rain showers

TAF: LRBM 291400Z 2915/2924 30008KT 9999 SCT020 BKN045 TEMPO 2915/2919 5000 -SHRA BKN015 SCT030CB OVC040

Weather observations and forecasts of more than 4000 airports (METAR and TAF reports).

The available stations are represented by yellow and red dots on the map.

Hover mouse over dot to see the name of the station.

Then click to see weather observations and forecasts.

To change the map : click on the green buttons with a black cross to zoom in, on the green button with a dash to zoom out, or on the green arrows for adjacent maps.


METAR-TAF: